West Santa Ysabel (222, 637) Station Data

Red Flag Warning: No
Fire Weather Zone: 258
SDGE Region: Ramona
Lat/Lon: 33.087/-116.69

Observations

Time Wind Speed/Gust Temp(F) RH Fuel Moist Fuel Temp(F) Dewpt(F) Tmax(F) Tmin(F) Accum Precip 10-min Precip SL Press(mb)
5/24 8:30am 168 4 G 7 69° 38% - - 42° 74.6° 63.1° - - 872.0
5/24 8:20am 121 3 G 6 67° 45% - - 45° 74.6° 63.1° - - 875.0
5/24 8:10am 109 4 G 5 68° 44% - - 45° 74.6° 63.1° - - 874.0
5/24 8:00am 128 3 G 5 66° 49% - - 46° 74.6° 63.1° - - 875.0
5/24 7:50am 218 5 G 8 66° 43% - - 43° 74.6° 63.1° - - 873.0
5/24 7:40am 236 4 G 10 67° 40% - - 42° 74.6° 63.1° - - 872.0
5/24 7:30am 241 3 G 6 70° 37% - - 43° 74.6° 63.1° - - 871.0
5/24 7:20am 219 2 G 5 74° 29% - - 40° 74.6° 63.1° - - 869.0
5/24 7:10am 210 2 G 4 73° 29% - - 39° 73.8° 63.1° - - 869.0
5/24 7:00am 196 3 G 4 72° 29% - - 38° 72.6° 63.1° - - 869.0
5/24 6:50am 179 3 G 4 71° 29% - - 38° 72° 63.1° - - 869.0
5/24 6:40am 95 3 G 4 69° 31% - - 37° 71.5° 63.1° - - 869.0
5/24 6:30am 77 4 G 5 68° 33% - - 38° 71.5° 63.1° - - 869.0
5/24 6:20am 100 3 G 4 70° 29% - - 36° 71.5° 63.1° - - 868.0
5/24 6:10am 143 3 G 3 70° 29% - - 36° 71.5° 63.1° - - 868.0
5/24 6:00am 108 3 G 3 68° 31% - - 37° 71.5° 63.1° - - 869.0
5/24 5:50am 70 5 G 6 67° 33% - - 37° 71.5° 63.1° - - 869.0
5/24 5:40am 65 6 G 8 66° 35% - - 37° 71.5° 63.1° - - 870.0
5/24 5:30am 64 7 G 8 64° 39% - - 38° 71.5° 63.1° - - 871.0
5/24 5:20am 68 6 G 8 64° 38% - - 38° 71.5° 63.1° - - 870.0
5/24 5:10am 78 3 G 5 67° 32% - - 37° 71.5° 66° - - 869.0
5/24 5:00am 134 2 G 3 67° 32% - - 37° 71.5° 66° - - 869.0
5/24 4:50am 147 3 G 5 68° 32% - - 36° 71.5° 66° - - 869.0
5/24 4:40am 145 4 G 4 68° 31% - - 36° 71.5° 66° - - 868.0
5/24 4:30am 140 3 G 4 68° 31% - - 36° 71.5° 66° - - 868.0
5/24 4:20am 161 2 G 3 67° 31% - - 36° 71.5° 66° - - 868.0
5/24 4:10am 194 3 G 3 67° 32% - - 36° 71.5° 66° - - 869.0
5/24 4:00am 204 3 G 5 67° 33% - - 37° 71.5° 66° - - 869.0
5/24 3:50am 208 3 G 5 66° 36% - - 39° 71.5° 66° - - 870.0
5/24 3:40am 222 2 G 4 67° 40% - - 42° 71.5° 66° - - 872.0
5/24 3:30am 250 2 G 4 68° 40% - - 42° 71.5° 66° - - 872.0
5/24 3:20am 258 2 G 4 69° 37% - - 42° 71.5° 66° - - 871.0
5/24 3:10am 239 1 G 2 69° 36% - - 41° 71.5° 66° - - 871.0
5/24 3:00am 215 3 G 4 70° 35% - - 41° 71.5° 66° - - 870.0
5/24 2:50am 205 3 G 4 70° 31% - - 39° 71.5° 66° - - 869.0
5/24 2:40am 194 3 G 4 71° 30% - - 38° 71.5° 66° - - 869.0
5/24 2:30am 115 2 G 3 70° 35% - - 41° 71.5° 66° - - 871.0
5/24 2:20am 92 3 G 4 71° 36% - - 43° 71.5° 66° - - 871.0
5/24 2:10am 83 4 G 4 71° 38% - - 44° 71.4° 66° - - 872.0
5/24 2:00am 82 4 G 5 70° 44% - - 47° 70.4° 66° - - 874.0
5/24 1:50am 71 5 G 7 68° 48% - - 48° 69.7° 66° - - 876.0
5/24 1:40am 69 6 G 7 67° 50% - - 47° 69.7° 66° - - 876.0
5/24 1:30am 69 6 G 7 67° 48% - - 47° 69.7° 66° - - 875.0
5/24 1:20am 82 4 G 6 69° 45% - - 46° 69.7° 68.1° - - 874.0
5/24 1:10am 108 3 G 4 69° 47% - - 48° 69.7° 68.1° - - 875.0
5/24 1:00am 173 2 G 3 69° 48% - - 49° 69.7° 68.1° - - 876.0
5/24 12:50am 188 3 G 3 69° 50% - - 49° 69.7° 68.1° - - 877.0
5/24 12:40am 192 3 G 4 68° 52% - - 50° 69.7° 68.1° - - 877.0
5/24 12:30am 195 4 G 4 68° 51% - - 50° 69.7° 68.3° - - 877.0
5/24 12:20am 203 3 G 4 69° 48% - - 49° 69.7° 68.5° - - 876.0
5/24 12:10am 107 0 G 1 69° 47% - - 49° 69.7° 69.1° - - 876.0
5/24 12:00am 175 1 G 2 69° 48% - - 49° 88.5° 67.7° - - 876.0
5/23 11:50pm 178 2 G 2 70° 46% - - 48° 88.5° 67.7° - - 875.0
5/23 11:40pm 201 2 G 3 71° 42% - - 47° 88.5° 67.7° - - 874.0
5/23 11:30pm 212 1 G 2 72° 40% - - 47° 88.5° 67.7° - - 873.0
5/23 11:20pm 80 0 G 2 73° 38% - - 46° 88.5° 67.7° - - 872.0
5/23 11:10pm 69 2 G 3 71° 40% - - 46° 88.5° 67.7° - - 873.0
5/23 11:00pm 70 4 G 5 70° 45% - - 47° 88.5° 67.7° - - 875.0
5/23 10:50pm 68 5 G 5 71° 45% - - 48° 88.5° 67.7° - - 875.0
5/23 10:40pm 71 4 G 5 70° 47% - - 49° 88.5° 67.7° - - 876.0
5/23 10:30pm 70 3 G 5 70° 49% - - 51° 88.5° 67.7° - - 877.0
5/23 10:20pm 73 2 G 4 70° 49% - - 51° 88.5° 67.7° - - 877.0
5/23 10:10pm 82 3 G 4 68° 54% - - 51° 88.5° 67.7° - - 878.0
5/23 10:00pm 29 2 G 3 69° 53% - - 51° 88.5° 68.1° - - 878.0
5/23 9:50pm 98 3 G 4 70° 50% - - 51° 88.5° 68.4° - - 877.0
5/23 9:40pm 76 3 G 4 70° 50% - - 51° 88.5° 68.4° - - 877.0
5/23 9:30pm 82 4 G 4 70° 52% - - 51° 88.5° 68.4° - - 878.0
5/23 9:20pm 68 4 G 5 70° 51% - - 51° 88.5° 68.4° - - 877.0
5/23 9:10pm 73 3 G 5 71° 49% - - 51° 88.5° 68.4° - - 877.0
5/23 9:00pm 98 3 G 4 71° 48% - - 50° 88.5° 68.4° - - 876.0
5/23 8:50pm 92 4 G 4 71° 48% - - 50° 88.5° 68.4° - - 876.0
5/23 8:40pm 93 3 G 4 71° 48% - - 50° 88.5° 68.4° - - 876.0
5/23 8:30pm 121 2 G 3 71° 48% - - 50° 88.5° 68.4° - - 876.0
5/23 8:20pm 122 4 G 5 71° 47% - - 50° 88.5° 68.4° - - 876.0
5/23 8:10pm 172 4 G 5 71° 47% - - 50° 88.5° 68.4° - - 876.0
5/23 8:00pm 184 3 G 6 71° 47% - - 50° 88.5° 68.4° - - 876.0
5/23 7:50pm 198 3 G 4 72° 46% - - 50° 88.5° 68.4° - - 876.0
5/23 7:40pm 215 3 G 5 73° 45% - - 51° 88.5° 68.4° - - 876.0
5/23 7:30pm 242 3 G 5 73° 46% - - 51° 88.5° 68.4° - - 876.0
5/23 7:20pm 261 5 G 8 74° 45% - - 51° 88.5° 68.4° - - 876.0
5/23 7:10pm 271 7 G 9 76° 41% - - 50° 88.5° 68.4° - - 875.0
5/23 7:00pm 272 6 G 8 78° 32% - - 46° 88.5° 68.4° - - 872.0
5/23 6:50pm 279 5 G 7 79° 29% - - 44° 88.5° 68.4° - - 871.0
5/23 6:40pm 283 4 G 6 80° 26% - - 42° 88.5° 68.4° - - 870.0
5/23 6:30pm 278 5 G 8 80° 22% - - 38° 88.5° 68.4° - - 869.0
5/23 6:20pm 271 5 G 7 80° 23% - - 39° 88.5° 68.4° - - 870.0
5/23 6:10pm 292 3 G 7 81° 23% - - 40° 88.5° 68.4° - - 870.0
5/23 6:00pm 330 3 G 5 82° 23% - - 40° 88.5° 68.4° - - 870.0
5/23 5:50pm 310 2 G 5 82° 27% - - 44° 88.5° 68.4° - - 872.0
5/23 5:40pm 283 3 G 7 80° 32% - - 48° 88.5° 68.4° - - 873.0
5/23 5:30pm 289 3 G 8 80° 34% - - 49° 88.5° 68.4° - - 874.0
5/23 5:20pm 311 3 G 7 80° 36% - - 51° 88.5° 68.4° - - 875.0
5/23 5:10pm 293 3 G 8 80° 37% - - 52° 88.5° 68.4° - - 875.0
5/23 5:00pm 266 4 G 9 79° 38% - - 52° 88.5° 68.4° - - 876.0
5/23 4:50pm 249 3 G 7 79° 38% - - 51° 88.5° 68.4° - - 875.0
5/23 4:40pm 261 4 G 8 79° 37% - - 51° 88.5° 68.4° - - 875.0
5/23 4:30pm 242 4 G 7 79° 36% - - 50° 88.5° 68.4° - - 875.0
5/23 4:20pm 245 3 G 8 79° 36% - - 50° 88.5° 68.4° - - 874.0
5/23 4:10pm 223 5 G 9 79° 37% - - 51° 88.5° 68.4° - - 875.0
5/23 4:00pm 246 5 G 11 78° 39% - - 51° 88.5° 68.4° - - 875.0
5/23 3:50pm 235 6 G 11 79° 38% - - 51° 88.5° 68.4° - - 875.0
5/23 3:40pm 239 5 G 11 78° 40% - - 52° 88.5° 68.4° - - 876.0
5/23 3:30pm 259 6 G 11 79° 40% - - 52° 88.5° 68.4° - - 876.0
5/23 3:20pm 265 9 G 15 78° 41% - - 53° 88.5° 68.4° - - 876.0
5/23 3:10pm 251 6 G 12 79° 41% - - 53° 88.5° 68.4° - - 877.0
5/23 3:00pm 272 9 G 14 80° 41% - - 54° 88.5° 68.4° - - 877.0
5/23 2:50pm 274 8 G 14 80° 41% - - 54° 88.5° 68.4° - - 877.0
5/23 2:40pm 266 9 G 14 81° 39% - - 54° 88.5° 68.4° - - 877.0
5/23 2:30pm 245 7 G 14 83° 35% - - 53° 88.5° 68.4° - - 875.0
5/23 2:20pm 228 6 G 13 84° 33% - - 51° 88.5° 68.4° - - 875.0
5/23 2:10pm 228 7 G 13 84° 31% - - 50° 88.5° 68.4° - - 874.0
5/23 2:00pm 254 5 G 11 84° 29% - - 49° 88.5° 68.4° - - 874.0
5/23 1:50pm 276 4 G 9 85° 29% - - 49° 88.5° 68.4° - - 874.0
5/23 1:40pm 238 5 G 9 85° 28% - - 48° 88.5° 68.4° - - 873.0
5/23 1:30pm 256 6 G 14 84° 29% - - 49° 88.5° 68.4° - - 874.0
5/23 1:20pm 259 7 G 14 85° 25% - - 45° 88.5° 68.4° - - 872.0
5/23 1:10pm 255 5 G 10 85° 25% - - 45° 88.5° 68.4° - - 872.0
5/23 1:00pm 236 6 G 10 85° 25% - - 46° 88.5° 68.4° - - 873.0
5/23 12:50pm 259 7 G 16 86° 22% - - 43° 88.5° 68.4° - - 871.0
5/23 12:40pm 263 5 G 12 86° 17% - - 37° 88.5° 68.4° - - 870.0
5/23 12:30pm 256 6 G 12 85° 19% - - 38° 88.5° 68.4° - - 871.0
5/23 12:20pm 260 9 G 18 86° 19% - - 38° 88.5° 68.4° - - 871.0
5/23 12:10pm 254 7 G 14 86° 19% - - 39° 88.5° 68.4° - - 871.0
5/23 12:00pm 256 6 G 13 86° 19% - - 38° 88.5° 68.4° - - 871.0
5/23 11:50am 244 5 G 13 87° 16% - - 35° 88.5° 68.4° - - 870.0
5/23 11:40am 252 4 G 10 86° 17% - - 36° 88.5° 68.4° - - 870.0
5/23 11:30am 277 5 G 10 86° 21% - - 41° 88.5° 68.4° - - 872.0
5/23 11:20am 259 5 G 10 85° 20% - - 40° 88.5° 68.4° - - 871.0
5/23 11:10am 260 4 G 10 85° 22% - - 42° 88.5° 68.4° - - 872.0
5/23 11:00am 264 4 G 9 85° 23% - - 43° 88.5° 68.4° - - 872.0
5/23 10:50am 264 3 G 7 84° 26% - - 45° 88.5° 68.4° - - 873.0
5/23 10:40am 266 4 G 8 83° 27% - - 46° 88.5° 68.4° - - 873.0
5/23 10:30am 269 5 G 9 84° 28% - - 47° 88.5° 68.4° - - 874.0
5/23 10:20am 255 4 G 9 84° 28% - - 47° 88.5° 68.4° - - 874.0
5/23 10:10am 266 5 G 8 83° 29% - - 47° 88.5° 68.4° - - 874.0
5/23 10:00am 277 7 G 11 84° 27% - - 46° 88.5° 68.4° - - 873.0
5/23 9:50am 56 2 G 7 88° 14% - - 32° 88.5° 68.4° - - 869.0
5/23 9:40am 51 2 G 3 87° 12% - - 29° 87.8° 68.4° - - 868.0
5/23 9:30am 85 2 G 3 85° 17% - - 35° 86° 68.4° - - 869.0
5/23 9:20am 74 2 G 4 85° 23% - - 42° 85.5° 68.4° - - 871.0
5/23 9:10am 352 2 G 4 83° 23% - - 41° 85.5° 68.4° - - 870.0
5/23 9:00am 10 2 G 5 84° 20% - - 38° 85.5° 68.4° - - 869.0
5/23 8:50am 72 3 G 4 82° 19% - - 36° 82.6° 68.4° - - 868.0
5/23 8:40am 58 4 G 5 81° 21% - - 37° 82.2° 68.4° - - 868.0
5/23 8:30am 62 4 G 6 80° 20% - - 36° 80.5° 68.4° - - 868.0
5/23 8:20am 62 4 G 6 79° 22% - - 37° 80.1° 68.4° - - 868.0
5/23 8:10am 71 5 G 6 79° 21% - - 35° 79° 68.4° - - 868.0
5/23 8:00am 67 4 G 6 77° 23% - - 36° 78.3° 68.4° - - 868.0
5/23 7:50am 53 5 G 8 77° 22% - - 35° 78.1° 68.4° - - 867.0
5/23 7:40am 52 5 G 8 76° 24% - - 37° 78.1° 68.4° - - 868.0
5/23 7:30am 41 7 G 9 78° 21% - - 34° 78.1° 68.4° - - 867.0
5/23 7:20am 37 6 G 8 77° 21% - - 34° 77.6° 68.4° - - 867.0
5/23 7:10am 36 7 G 8 76° 20% - - 32° 76.9° 68.4° - - 866.0
5/23 7:00am 29 8 G 10 75° 21% - - 32° 75.8° 68.4° - - 866.0
5/23 6:50am 34 7 G 9 74° 22% - - 33° 75.1° 68.4° - - 867.0
5/23 6:40am 38 7 G 9 74° 22% - - 33° 75.1° 68.4° - - 867.0
5/23 6:30am 41 7 G 10 74° 22% - - 33° 75.1° 68.4° - - 866.0
5/23 6:20am 30 7 G 9 75° 20% - - 31° 75.1° 68.4° - - 866.0
5/23 6:10am 35 8 G 9 74° 21% - - 31° 74.7° 68.4° - - 866.0
5/23 6:00am 34 7 G 10 74° 20% - - 30° 74.7° 68.4° - - 865.0